Terminal Aerodrome Forecast
Issued by NWS Dodge City, KS

Home | Current Version | Previous Version | Graphics & Text | Print | Product List | Glossary Off
Versions: 1 2 3 4 5 6 7 8 9 10 11 12 13 14 15 16 17 18 19 20 21 22

000
FTUS43 KDDC 250520
TAFDDC
TAF
KDDC 250520Z 2506/2606 03009KT P6SM -TSRA BKN006CB
     FM251100 02008KT P6SM VCTS OVC008CB
     FM251500 02008KT P6SM OVC020
     FM251700 03008KT P6SM BKN035=

USA.gov is the U.S. government's official web portal to all federal, state and local government web resources and services.